sensor_id;sensor_type;location;lat;lon;timestamp;P1;durP1;ratioP1;P2;durP2;ratioP2
74074;SDS011;62428;51.412;5.432;2023-03-01T00:02:10;5.43;;;3.30;;
74074;SDS011;62428;51.412;5.432;2023-03-01T00:04:36;5.27;;;2.87;;
74074;SDS011;62428;51.412;5.432;2023-03-01T00:07:01;6.43;;;3.10;;
74074;SDS011;62428;51.412;5.432;2023-03-01T00:09:26;5.65;;;3.47;;
74074;SDS011;62428;51.412;5.432;2023-03-01T00:11:52;8.10;;;3.53;;
74074;SDS011;62428;51.412;5.432;2023-03-01T00:14:17;6.63;;;2.90;;
74074;SDS011;62428;51.412;5.432;2023-03-01T00:16:43;8.17;;;3.10;;
74074;SDS011;62428;51.412;5.432;2023-03-01T00:19:12;6.50;;;3.30;;
74074;SDS011;62428;51.412;5.432;2023-03-01T00:21:39;5.57;;;3.23;;
74074;SDS011;62428;51.412;5.432;2023-03-01T00:24:05;6.28;;;3.17;;
74074;SDS011;62428;51.412;5.432;2023-03-01T00:26:30;5.43;;;3.08;;
74074;SDS011;62428;51.412;5.432;2023-03-01T00:28:57;5.40;;;2.93;;
74074;SDS011;62428;51.412;5.432;2023-03-01T00:31:24;4.88;;;2.70;;
74074;SDS011;62428;51.412;5.432;2023-03-01T00:33:54;5.50;;;2.90;;
74074;SDS011;62428;51.412;5.432;2023-03-01T00:36:25;7.35;;;2.72;;
74074;SDS011;62428;51.412;5.432;2023-03-01T00:38:51;7.05;;;2.97;;
74074;SDS011;62428;51.412;5.432;2023-03-01T00:41:17;4.90;;;2.90;;
74074;SDS011;62428;51.412;5.432;2023-03-01T00:43:44;6.88;;;2.83;;
74074;SDS011;62428;51.412;5.432;2023-03-01T00:46:11;4.68;;;2.28;;
74074;SDS011;62428;51.412;5.432;2023-03-01T00:48:38;10.30;;;3.03;;
74074;SDS011;62428;51.412;5.432;2023-03-01T00:51:04;7.18;;;2.67;;
74074;SDS011;62428;51.412;5.432;2023-03-01T00:53:33;6.43;;;2.83;;
74074;SDS011;62428;51.412;5.432;2023-03-01T00:55:59;5.53;;;3.00;;
74074;SDS011;62428;51.412;5.432;2023-03-01T00:58:25;6.32;;;3.50;;
74074;SDS011;62428;51.412;5.432;2023-03-01T01:00:51;6.80;;;3.13;;
74074;SDS011;62428;51.412;5.432;2023-03-01T01:03:17;5.25;;;2.53;;
74074;SDS011;62428;51.412;5.432;2023-03-01T01:05:43;4.80;;;2.53;;
74074;SDS011;62428;51.412;5.432;2023-03-01T01:08:09;5.80;;;2.93;;
74074;SDS011;62428;51.412;5.432;2023-03-01T01:10:34;7.70;;;2.80;;
74074;SDS011;62428;51.412;5.432;2023-03-01T01:13:00;7.03;;;2.95;;
74074;SDS011;62428;51.412;5.432;2023-03-01T01:15:25;5.38;;;2.58;;
74074;SDS011;62428;51.412;5.432;2023-03-01T01:17:50;5.37;;;3.00;;
74074;SDS011;62428;51.412;5.432;2023-03-01T01:20:16;5.70;;;2.90;;
74074;SDS011;62428;51.412;5.432;2023-03-01T01:22:41;8.30;;;2.73;;
74074;SDS011;62428;51.412;5.432;2023-03-01T01:25:07;5.33;;;2.80;;
74074;SDS011;62428;51.412;5.432;2023-03-01T01:27:33;7.80;;;2.78;;
74074;SDS011;62428;51.412;5.432;2023-03-01T01:29:58;8.32;;;2.70;;
74074;SDS011;62428;51.412;5.432;2023-03-01T01:32:24;5.93;;;2.50;;
74074;SDS011;62428;51.412;5.432;2023-03-01T01:34:49;5.50;;;2.60;;
74074;SDS011;62428;51.412;5.432;2023-03-01T01:37:15;5.50;;;2.63;;
74074;SDS011;62428;51.412;5.432;2023-03-01T01:39:40;7.23;;;2.60;;
74074;SDS011;62428;51.412;5.432;2023-03-01T01:42:05;6.03;;;2.97;;
74074;SDS011;62428;51.412;5.432;2023-03-01T01:44:32;6.00;;;2.87;;
74074;SDS011;62428;51.412;5.432;2023-03-01T01:47:00;6.20;;;3.08;;
74074;SDS011;62428;51.412;5.432;2023-03-01T01:49:32;8.43;;;3.00;;
74074;SDS011;62428;51.412;5.432;2023-03-01T01:54:40;7.23;;;3.03;;
74074;SDS011;62428;51.412;5.432;2023-03-01T01:57:12;5.30;;;2.80;;
74074;SDS011;62428;51.412;5.432;2023-03-01T01:59:41;4.63;;;2.58;;
74074;SDS011;62428;51.412;5.432;2023-03-01T02:02:10;7.45;;;2.83;;
74074;SDS011;62428;51.412;5.432;2023-03-01T02:04:37;7.45;;;3.13;;
74074;SDS011;62428;51.412;5.432;2023-03-01T02:07:06;5.60;;;2.77;;
74074;SDS011;62428;51.412;5.432;2023-03-01T02:09:38;9.20;;;3.17;;
74074;SDS011;62428;51.412;5.432;2023-03-01T02:12:05;6.00;;;2.88;;
74074;SDS011;62428;51.412;5.432;2023-03-01T02:14:31;5.57;;;2.75;;
74074;SDS011;62428;51.412;5.432;2023-03-01T02:16:57;4.40;;;2.80;;
74074;SDS011;62428;51.412;5.432;2023-03-01T02:19:48;6.83;;;3.20;;
74074;SDS011;62428;51.412;5.432;2023-03-01T02:28:22;6.47;;;2.80;;
74074;SDS011;62428;51.412;5.432;2023-03-01T02:30:28;6.20;;;2.92;;
74074;SDS011;62428;51.412;5.432;2023-03-01T02:32:56;7.25;;;2.90;;
74074;SDS011;62428;51.412;5.432;2023-03-01T02:35:27;6.57;;;2.85;;
74074;SDS011;62428;51.412;5.432;2023-03-01T02:37:55;5.90;;;2.93;;
74074;SDS011;62428;51.412;5.432;2023-03-01T02:40:22;6.05;;;3.13;;
74074;SDS011;62428;51.412;5.432;2023-03-01T02:42:51;7.03;;;2.67;;
74074;SDS011;62428;51.412;5.432;2023-03-01T02:45:19;6.15;;;3.30;;
74074;SDS011;62428;51.412;5.432;2023-03-01T02:47:45;5.27;;;2.87;;
74074;SDS011;62428;51.412;5.432;2023-03-01T02:52:53;7.35;;;3.30;;
74074;SDS011;62428;51.412;5.432;2023-03-01T02:55:25;8.30;;;3.30;;
74074;SDS011;62428;51.412;5.432;2023-03-01T02:57:52;6.47;;;3.33;;
74074;SDS011;62428;51.412;5.432;2023-03-01T03:00:23;8.23;;;3.05;;
74074;SDS011;62428;51.412;5.432;2023-03-01T03:02:53;8.33;;;3.27;;
74074;SDS011;62428;51.412;5.432;2023-03-01T03:05:26;7.30;;;2.80;;
74074;SDS011;62428;51.412;5.432;2023-03-01T03:07:55;6.65;;;2.58;;
74074;SDS011;62428;51.412;5.432;2023-03-01T03:10:26;5.20;;;2.95;;
74074;SDS011;62428;51.412;5.432;2023-03-01T03:12:58;5.75;;;2.85;;
74074;SDS011;62428;51.412;5.432;2023-03-01T03:15:32;5.70;;;3.03;;
74074;SDS011;62428;51.412;5.432;2023-03-01T03:18:02;7.18;;;3.25;;
74074;SDS011;62428;51.412;5.432;2023-03-01T03:20:28;7.78;;;3.25;;
74074;SDS011;62428;51.412;5.432;2023-03-01T03:22:55;7.00;;;3.00;;
74074;SDS011;62428;51.412;5.432;2023-03-01T03:25:23;7.40;;;3.25;;
74074;SDS011;62428;51.412;5.432;2023-03-01T03:27:49;5.27;;;2.67;;
74074;SDS011;62428;51.412;5.432;2023-03-01T03:30:21;7.15;;;3.20;;
74074;SDS011;62428;51.412;5.432;2023-03-01T03:32:47;6.28;;;2.90;;
74074;SDS011;62428;51.412;5.432;2023-03-01T03:35:18;7.75;;;3.38;;
74074;SDS011;62428;51.412;5.432;2023-03-01T03:37:45;5.15;;;3.08;;
74074;SDS011;62428;51.412;5.432;2023-03-01T03:40:26;6.30;;;2.90;;
74074;SDS011;62428;51.412;5.432;2023-03-01T03:42:53;5.88;;;3.58;;
74074;SDS011;62428;51.412;5.432;2023-03-01T03:45:19;6.97;;;3.05;;
74074;SDS011;62428;51.412;5.432;2023-03-01T03:47:45;7.97;;;3.33;;
74074;SDS011;62428;51.412;5.432;2023-03-01T03:50:11;8.50;;;2.83;;
74074;SDS011;62428;51.412;5.432;2023-03-01T03:52:37;6.18;;;3.03;;
74074;SDS011;62428;51.412;5.432;2023-03-01T03:55:03;8.23;;;2.67;;
74074;SDS011;62428;51.412;5.432;2023-03-01T03:57:34;5.97;;;2.90;;
74074;SDS011;62428;51.412;5.432;2023-03-01T03:59:59;7.00;;;3.50;;
74074;SDS011;62428;51.412;5.432;2023-03-01T04:02:25;7.93;;;3.10;;
74074;SDS011;62428;51.412;5.432;2023-03-01T04:04:50;5.47;;;3.40;;
74074;SDS011;62428;51.412;5.432;2023-03-01T04:07:16;8.93;;;3.25;;
74074;SDS011;62428;51.412;5.432;2023-03-01T04:09:42;7.40;;;2.80;;
74074;SDS011;62428;51.412;5.432;2023-03-01T04:12:07;5.55;;;3.15;;
74074;SDS011;62428;51.412;5.432;2023-03-01T04:14:33;7.13;;;2.97;;
74074;SDS011;62428;51.412;5.432;2023-03-01T04:16:58;7.78;;;3.42;;
74074;SDS011;62428;51.412;5.432;2023-03-01T04:19:24;5.27;;;2.87;;
74074;SDS011;62428;51.412;5.432;2023-03-01T04:21:49;11.00;;;3.50;;
74074;SDS011;62428;51.412;5.432;2023-03-01T04:24:15;7.13;;;3.10;;
74074;SDS011;62428;51.412;5.432;2023-03-01T04:26:40;9.07;;;3.47;;
74074;SDS011;62428;51.412;5.432;2023-03-01T04:29:05;7.90;;;2.90;;
74074;SDS011;62428;51.412;5.432;2023-03-01T04:31:31;9.20;;;3.30;;
74074;SDS011;62428;51.412;5.432;2023-03-01T04:33:56;6.13;;;3.17;;
74074;SDS011;62428;51.412;5.432;2023-03-01T04:36:22;9.73;;;3.17;;
74074;SDS011;62428;51.412;5.432;2023-03-01T04:38:50;7.30;;;3.42;;
74074;SDS011;62428;51.412;5.432;2023-03-01T04:41:17;6.10;;;3.40;;
74074;SDS011;62428;51.412;5.432;2023-03-01T04:43:44;8.02;;;3.20;;
74074;SDS011;62428;51.412;5.432;2023-03-01T04:46:13;7.93;;;3.35;;
74074;SDS011;62428;51.412;5.432;2023-03-01T04:48:41;6.45;;;3.13;;
74074;SDS011;62428;51.412;5.432;2023-03-01T04:51:08;8.80;;;3.30;;
74074;SDS011;62428;51.412;5.432;2023-03-01T04:53:33;9.27;;;3.45;;
74074;SDS011;62428;51.412;5.432;2023-03-01T04:56:01;7.67;;;3.23;;
74074;SDS011;62428;51.412;5.432;2023-03-01T04:58:27;8.73;;;3.90;;
74074;SDS011;62428;51.412;5.432;2023-03-01T05:00:53;12.20;;;3.60;;
74074;SDS011;62428;51.412;5.432;2023-03-01T05:03:19;11.37;;;4.03;;
74074;SDS011;62428;51.412;5.432;2023-03-01T05:05:46;6.95;;;3.53;;
74074;SDS011;62428;51.412;5.432;2023-03-01T05:08:13;9.52;;;3.92;;
74074;SDS011;62428;51.412;5.432;2023-03-01T05:10:43;7.90;;;3.45;;
74074;SDS011;62428;51.412;5.432;2023-03-01T05:13:14;7.47;;;3.30;;
74074;SDS011;62428;51.412;5.432;2023-03-01T05:15:45;10.63;;;3.78;;
74074;SDS011;62428;51.412;5.432;2023-03-01T05:18:12;9.93;;;3.65;;
74074;SDS011;62428;51.412;5.432;2023-03-01T05:20:38;7.40;;;3.43;;
74074;SDS011;62428;51.412;5.432;2023-03-01T05:23:03;7.40;;;3.43;;
74074;SDS011;62428;51.412;5.432;2023-03-01T05:25:30;8.63;;;3.88;;
74074;SDS011;62428;51.412;5.432;2023-03-01T05:28:00;8.65;;;3.45;;
74074;SDS011;62428;51.412;5.432;2023-03-01T05:30:29;8.70;;;3.75;;
74074;SDS011;62428;51.412;5.432;2023-03-01T05:32:59;7.23;;;3.63;;
74074;SDS011;62428;51.412;5.432;2023-03-01T05:35:25;5.93;;;3.28;;
74074;SDS011;62428;51.412;5.432;2023-03-01T05:37:51;6.22;;;3.15;;
74074;SDS011;62428;51.412;5.432;2023-03-01T05:40:21;7.67;;;3.30;;
74074;SDS011;62428;51.412;5.432;2023-03-01T05:42:49;7.82;;;3.53;;
74074;SDS011;62428;51.412;5.432;2023-03-01T05:45:17;7.20;;;3.15;;
74074;SDS011;62428;51.412;5.432;2023-03-01T05:47:43;8.15;;;3.97;;
74074;SDS011;62428;51.412;5.432;2023-03-01T05:52:39;7.45;;;3.58;;
74074;SDS011;62428;51.412;5.432;2023-03-01T05:55:05;8.68;;;3.72;;
74074;SDS011;62428;51.412;5.432;2023-03-01T05:57:31;12.55;;;3.60;;
74074;SDS011;62428;51.412;5.432;2023-03-01T05:59:56;10.70;;;3.70;;
74074;SDS011;62428;51.412;5.432;2023-03-01T06:02:21;7.17;;;3.10;;
74074;SDS011;62428;51.412;5.432;2023-03-01T06:04:47;8.97;;;3.40;;
74074;SDS011;62428;51.412;5.432;2023-03-01T06:07:12;9.00;;;3.87;;
74074;SDS011;62428;51.412;5.432;2023-03-01T06:09:37;8.80;;;3.37;;
74074;SDS011;62428;51.412;5.432;2023-03-01T06:12:03;6.70;;;3.23;;
74074;SDS011;62428;51.412;5.432;2023-03-01T06:14:30;6.40;;;3.40;;
74074;SDS011;62428;51.412;5.432;2023-03-01T06:16:56;15.73;;;3.78;;
74074;SDS011;62428;51.412;5.432;2023-03-01T06:19:22;8.85;;;4.28;;
74074;SDS011;62428;51.412;5.432;2023-03-01T06:21:47;7.33;;;3.60;;
74074;SDS011;62428;51.412;5.432;2023-03-01T06:24:12;9.67;;;3.87;;
74074;SDS011;62428;51.412;5.432;2023-03-01T06:26:38;7.40;;;3.53;;
74074;SDS011;62428;51.412;5.432;2023-03-01T06:29:03;6.70;;;3.37;;
74074;SDS011;62428;51.412;5.432;2023-03-01T06:31:28;8.37;;;3.80;;
74074;SDS011;62428;51.412;5.432;2023-03-01T06:33:54;8.60;;;4.17;;
74074;SDS011;62428;51.412;5.432;2023-03-01T06:36:19;7.47;;;3.53;;
74074;SDS011;62428;51.412;5.432;2023-03-01T06:38:46;9.27;;;3.70;;
74074;SDS011;62428;51.412;5.432;2023-03-01T06:41:11;8.95;;;3.95;;
74074;SDS011;62428;51.412;5.432;2023-03-01T06:43:37;10.37;;;3.70;;
74074;SDS011;62428;51.412;5.432;2023-03-01T06:46:05;11.17;;;3.80;;
74074;SDS011;62428;51.412;5.432;2023-03-01T06:48:31;8.05;;;3.90;;
74074;SDS011;62428;51.412;5.432;2023-03-01T06:50:58;9.48;;;4.35;;
74074;SDS011;62428;51.412;5.432;2023-03-01T06:53:25;8.10;;;3.90;;
74074;SDS011;62428;51.412;5.432;2023-03-01T06:55:55;8.50;;;3.78;;
74074;SDS011;62428;51.412;5.432;2023-03-01T06:58:21;7.65;;;4.07;;
74074;SDS011;62428;51.412;5.432;2023-03-01T07:00:46;11.50;;;4.20;;
74074;SDS011;62428;51.412;5.432;2023-03-01T07:03:11;10.57;;;4.10;;
74074;SDS011;62428;51.412;5.432;2023-03-01T07:05:37;11.73;;;3.97;;
74074;SDS011;62428;51.412;5.432;2023-03-01T07:08:02;8.65;;;4.20;;
74074;SDS011;62428;51.412;5.432;2023-03-01T07:10:27;13.20;;;4.27;;
74074;SDS011;62428;51.412;5.432;2023-03-01T07:12:56;10.53;;;4.20;;
74074;SDS011;62428;51.412;5.432;2023-03-01T07:15:22;11.13;;;4.20;;
74074;SDS011;62428;51.412;5.432;2023-03-01T07:17:48;9.47;;;4.63;;
74074;SDS011;62428;51.412;5.432;2023-03-01T07:20:15;12.30;;;4.53;;
74074;SDS011;62428;51.412;5.432;2023-03-01T07:22:42;14.90;;;5.18;;
74074;SDS011;62428;51.412;5.432;2023-03-01T07:25:07;9.60;;;4.80;;
74074;SDS011;62428;51.412;5.432;2023-03-01T07:27:33;10.18;;;4.63;;
74074;SDS011;62428;51.412;5.432;2023-03-01T07:29:59;11.00;;;4.70;;
74074;SDS011;62428;51.412;5.432;2023-03-01T07:32:24;9.50;;;4.50;;
74074;SDS011;62428;51.412;5.432;2023-03-01T07:34:50;9.27;;;4.60;;
74074;SDS011;62428;51.412;5.432;2023-03-01T07:37:16;8.98;;;4.35;;
74074;SDS011;62428;51.412;5.432;2023-03-01T07:39:42;12.52;;;4.50;;
74074;SDS011;62428;51.412;5.432;2023-03-01T07:42:07;13.63;;;5.43;;
74074;SDS011;62428;51.412;5.432;2023-03-01T07:44:33;8.73;;;4.10;;
74074;SDS011;62428;51.412;5.432;2023-03-01T07:46:59;8.25;;;4.10;;
74074;SDS011;62428;51.412;5.432;2023-03-01T07:49:25;10.40;;;4.45;;
74074;SDS011;62428;51.412;5.432;2023-03-01T07:51:52;11.37;;;4.43;;
74074;SDS011;62428;51.412;5.432;2023-03-01T07:54:17;7.70;;;4.30;;
74074;SDS011;62428;51.412;5.432;2023-03-01T07:56:43;11.00;;;4.53;;
74074;SDS011;62428;51.412;5.432;2023-03-01T07:59:08;11.13;;;4.75;;
74074;SDS011;62428;51.412;5.432;2023-03-01T08:01:34;10.02;;;5.07;;
74074;SDS011;62428;51.412;5.432;2023-03-01T08:03:59;9.17;;;4.10;;
74074;SDS011;62428;51.412;5.432;2023-03-01T08:06:24;7.33;;;4.10;;
74074;SDS011;62428;51.412;5.432;2023-03-01T08:08:50;9.93;;;3.77;;
74074;SDS011;62428;51.412;5.432;2023-03-01T08:11:15;15.37;;;4.50;;
74074;SDS011;62428;51.412;5.432;2023-03-01T08:13:41;14.23;;;5.03;;
74074;SDS011;62428;51.412;5.432;2023-03-01T08:16:10;9.77;;;4.50;;
74074;SDS011;62428;51.412;5.432;2023-03-01T08:18:37;8.77;;;4.83;;
74074;SDS011;62428;51.412;5.432;2023-03-01T08:21:03;8.88;;;3.97;;
74074;SDS011;62428;51.412;5.432;2023-03-01T08:23:33;9.83;;;4.20;;
74074;SDS011;62428;51.412;5.432;2023-03-01T08:28:31;11.80;;;4.70;;
74074;SDS011;62428;51.412;5.432;2023-03-01T08:30:57;10.40;;;4.27;;
74074;SDS011;62428;51.412;5.432;2023-03-01T08:33:22;15.47;;;4.73;;
74074;SDS011;62428;51.412;5.432;2023-03-01T08:35:48;11.27;;;4.47;;
74074;SDS011;62428;51.412;5.432;2023-03-01T08:38:13;7.55;;;3.60;;
74074;SDS011;62428;51.412;5.432;2023-03-01T08:40:38;9.50;;;4.03;;
74074;SDS011;62428;51.412;5.432;2023-03-01T08:43:04;8.20;;;3.73;;
74074;SDS011;62428;51.412;5.432;2023-03-01T08:45:29;9.00;;;4.53;;
74074;SDS011;62428;51.412;5.432;2023-03-01T08:47:54;10.60;;;4.97;;
74074;SDS011;62428;51.412;5.432;2023-03-01T08:50:20;8.27;;;4.07;;
74074;SDS011;62428;51.412;5.432;2023-03-01T08:52:45;9.20;;;4.13;;
74074;SDS011;62428;51.412;5.432;2023-03-01T08:55:10;12.47;;;4.17;;
74074;SDS011;62428;51.412;5.432;2023-03-01T08:57:36;8.00;;;4.07;;
74074;SDS011;62428;51.412;5.432;2023-03-01T09:00:02;6.13;;;3.93;;
74074;SDS011;62428;51.412;5.432;2023-03-01T09:02:28;8.77;;;3.30;;
74074;SDS011;62428;51.412;5.432;2023-03-01T09:04:53;7.30;;;3.88;;
74074;SDS011;62428;51.412;5.432;2023-03-01T09:07:19;7.60;;;3.30;;
74074;SDS011;62428;51.412;5.432;2023-03-01T09:09:44;6.23;;;3.57;;
74074;SDS011;62428;51.412;5.432;2023-03-01T09:12:09;8.23;;;3.27;;
74074;SDS011;62428;51.412;5.432;2023-03-01T09:14:35;8.67;;;4.13;;
74074;SDS011;62428;51.412;5.432;2023-03-01T09:17:03;9.45;;;4.13;;
74074;SDS011;62428;51.412;5.432;2023-03-01T09:19:28;8.70;;;3.83;;
74074;SDS011;62428;51.412;5.432;2023-03-01T09:21:54;9.95;;;3.85;;
74074;SDS011;62428;51.412;5.432;2023-03-01T09:24:21;7.72;;;4.00;;
74074;SDS011;62428;51.412;5.432;2023-03-01T09:26:47;8.13;;;4.17;;
74074;SDS011;62428;51.412;5.432;2023-03-01T09:29:13;7.90;;;4.18;;
74074;SDS011;62428;51.412;5.432;2023-03-01T09:31:40;10.18;;;4.00;;
74074;SDS011;62428;51.412;5.432;2023-03-01T09:34:06;8.40;;;4.10;;
74074;SDS011;62428;51.412;5.432;2023-03-01T09:36:32;7.90;;;3.63;;
74074;SDS011;62428;51.412;5.432;2023-03-01T09:38:58;6.28;;;3.30;;
74074;SDS011;62428;51.412;5.432;2023-03-01T09:47:20;7.23;;;3.90;;
74074;SDS011;62428;51.412;5.432;2023-03-01T09:49:56;7.30;;;4.00;;
74074;SDS011;62428;51.412;5.432;2023-03-01T09:55:10;6.70;;;3.63;;
74074;SDS011;62428;51.412;5.432;2023-03-01T10:03:12;8.68;;;3.47;;
74074;SDS011;62428;51.412;5.432;2023-03-01T10:08:34;7.53;;;3.88;;
74074;SDS011;62428;51.412;5.432;2023-03-01T10:11:05;9.23;;;3.90;;
74074;SDS011;62428;51.412;5.432;2023-03-01T10:14:00;8.83;;;4.00;;
74074;SDS011;62428;51.412;5.432;2023-03-01T10:16:46;9.23;;;4.38;;
74074;SDS011;62428;51.412;5.432;2023-03-01T10:24:57;12.20;;;4.13;;
74074;SDS011;62428;51.412;5.432;2023-03-01T10:27:25;7.83;;;4.07;;
74074;SDS011;62428;51.412;5.432;2023-03-01T10:32:57;7.70;;;4.20;;
74074;SDS011;62428;51.412;5.432;2023-03-01T10:35:27;10.25;;;4.07;;
74074;SDS011;62428;51.412;5.432;2023-03-01T10:38:08;8.90;;;4.22;;
74074;SDS011;62428;51.412;5.432;2023-03-01T10:40:35;8.40;;;4.10;;
74074;SDS011;62428;51.412;5.432;2023-03-01T10:43:05;8.23;;;3.72;;
74074;SDS011;62428;51.412;5.432;2023-03-01T10:45:37;7.70;;;3.15;;
74074;SDS011;62428;51.412;5.432;2023-03-01T10:48:05;8.55;;;4.07;;
74074;SDS011;62428;51.412;5.432;2023-03-01T10:50:50;11.95;;;4.53;;
74074;SDS011;62428;51.412;5.432;2023-03-01T10:53:34;10.17;;;3.83;;
74074;SDS011;62428;51.412;5.432;2023-03-01T10:58:33;12.73;;;4.13;;
74074;SDS011;62428;51.412;5.432;2023-03-01T11:01:04;7.00;;;3.60;;
74074;SDS011;62428;51.412;5.432;2023-03-01T11:08:30;11.05;;;4.50;;
74074;SDS011;62428;51.412;5.432;2023-03-01T11:13:31;10.43;;;4.32;;
74074;SDS011;62428;51.412;5.432;2023-03-01T11:16:05;10.23;;;4.60;;
74074;SDS011;62428;51.412;5.432;2023-03-01T11:18:35;8.63;;;4.32;;
74074;SDS011;62428;51.412;5.432;2023-03-01T11:21:00;9.23;;;5.03;;
74074;SDS011;62428;51.412;5.432;2023-03-01T11:23:27;10.43;;;4.60;;
74074;SDS011;62428;51.412;5.432;2023-03-01T11:25:55;10.90;;;4.82;;
74074;SDS011;62428;51.412;5.432;2023-03-01T11:28:23;10.13;;;4.30;;
74074;SDS011;62428;51.412;5.432;2023-03-01T11:31:13;8.95;;;4.50;;
74074;SDS011;62428;51.412;5.432;2023-03-01T11:39:03;11.00;;;5.05;;
74074;SDS011;62428;51.412;5.432;2023-03-01T11:41:38;9.67;;;3.77;;
74074;SDS011;62428;51.412;5.432;2023-03-01T11:44:14;8.15;;;4.00;;
74074;SDS011;62428;51.412;5.432;2023-03-01T11:46:52;8.60;;;4.45;;
74074;SDS011;62428;51.412;5.432;2023-03-01T11:58:18;7.03;;;3.88;;
74074;SDS011;62428;51.412;5.432;2023-03-01T12:11:33;8.55;;;4.38;;
74074;SDS011;62428;51.412;5.432;2023-03-01T12:34:25;6.25;;;3.67;;
74074;SDS011;62428;51.412;5.432;2023-03-01T12:37:10;6.95;;;3.38;;
74074;SDS011;62428;51.412;5.432;2023-03-01T12:42:30;9.87;;;4.17;;
74074;SDS011;62428;51.412;5.432;2023-03-01T12:45:16;7.45;;;3.80;;
74074;SDS011;62428;51.412;5.432;2023-03-01T12:47:58;6.72;;;4.07;;
74074;SDS011;62428;51.412;5.432;2023-03-01T12:50:40;7.95;;;3.72;;
74074;SDS011;62428;51.412;5.432;2023-03-01T12:53:54;7.00;;;3.88;;
74074;SDS011;62428;51.412;5.432;2023-03-01T12:56:02;6.03;;;3.73;;
74074;SDS011;62428;51.412;5.432;2023-03-01T13:01:40;8.40;;;3.50;;
74074;SDS011;62428;51.412;5.432;2023-03-01T13:11:44;5.17;;;2.93;;
74074;SDS011;62428;51.412;5.432;2023-03-01T13:16:48;9.02;;;3.83;;
74074;SDS011;62428;51.412;5.432;2023-03-01T13:19:15;10.25;;;3.67;;
74074;SDS011;62428;51.412;5.432;2023-03-01T13:21:43;6.45;;;3.33;;
74074;SDS011;62428;51.412;5.432;2023-03-01T13:24:26;6.38;;;3.40;;
74074;SDS011;62428;51.412;5.432;2023-03-01T13:32:23;6.18;;;3.20;;
74074;SDS011;62428;51.412;5.432;2023-03-01T13:35:40;6.20;;;3.17;;
74074;SDS011;62428;51.412;5.432;2023-03-01T13:37:51;6.90;;;3.38;;
74074;SDS011;62428;51.412;5.432;2023-03-01T13:45:55;7.63;;;3.27;;
74074;SDS011;62428;51.412;5.432;2023-03-01T13:48:23;8.38;;;3.50;;
74074;SDS011;62428;51.412;5.432;2023-03-01T13:50:55;5.95;;;3.15;;
74074;SDS011;62428;51.412;5.432;2023-03-01T13:53:25;5.47;;;3.03;;
74074;SDS011;62428;51.412;5.432;2023-03-01T13:55:55;6.20;;;3.15;;
74074;SDS011;62428;51.412;5.432;2023-03-01T13:58:25;6.70;;;3.43;;
74074;SDS011;62428;51.412;5.432;2023-03-01T14:03:21;8.48;;;3.38;;
74074;SDS011;62428;51.412;5.432;2023-03-01T14:08:32;4.75;;;3.13;;
74074;SDS011;62428;51.412;5.432;2023-03-01T14:19:21;5.07;;;2.83;;
74074;SDS011;62428;51.412;5.432;2023-03-01T14:22:06;7.43;;;3.95;;
74074;SDS011;62428;51.412;5.432;2023-03-01T14:24:51;7.90;;;3.72;;
74074;SDS011;62428;51.412;5.432;2023-03-01T14:27:20;4.90;;;3.08;;
74074;SDS011;62428;51.412;5.432;2023-03-01T14:29:55;4.77;;;3.30;;
74074;SDS011;62428;51.412;5.432;2023-03-01T14:32:24;6.50;;;3.85;;
74074;SDS011;62428;51.412;5.432;2023-03-01T14:34:52;6.25;;;3.40;;
74074;SDS011;62428;51.412;5.432;2023-03-01T14:37:28;5.33;;;3.83;;
74074;SDS011;62428;51.412;5.432;2023-03-01T14:40:01;7.15;;;3.53;;
74074;SDS011;62428;51.412;5.432;2023-03-01T14:42:30;7.95;;;3.90;;
74074;SDS011;62428;51.412;5.432;2023-03-01T14:45:01;8.10;;;3.63;;
74074;SDS011;62428;51.412;5.432;2023-03-01T14:47:32;6.65;;;3.58;;
74074;SDS011;62428;51.412;5.432;2023-03-01T14:52:39;7.32;;;4.00;;
74074;SDS011;62428;51.412;5.432;2023-03-01T14:55:15;7.20;;;3.75;;
74074;SDS011;62428;51.412;5.432;2023-03-01T14:57:44;7.15;;;4.10;;
74074;SDS011;62428;51.412;5.432;2023-03-01T15:00:19;6.65;;;3.90;;
74074;SDS011;62428;51.412;5.432;2023-03-01T15:02:48;7.00;;;3.47;;
74074;SDS011;62428;51.412;5.432;2023-03-01T15:05:15;6.82;;;3.85;;
74074;SDS011;62428;51.412;5.432;2023-03-01T15:07:48;7.68;;;4.18;;
74074;SDS011;62428;51.412;5.432;2023-03-01T15:10:19;8.40;;;4.30;;
74074;SDS011;62428;51.412;5.432;2023-03-01T15:12:47;9.27;;;4.03;;
74074;SDS011;62428;51.412;5.432;2023-03-01T15:17:55;6.63;;;3.67;;
74074;SDS011;62428;51.412;5.432;2023-03-01T15:20:26;5.40;;;3.40;;
74074;SDS011;62428;51.412;5.432;2023-03-01T15:22:55;7.45;;;3.72;;
74074;SDS011;62428;51.412;5.432;2023-03-01T15:25:25;6.68;;;3.78;;
74074;SDS011;62428;51.412;5.432;2023-03-01T15:27:53;7.68;;;3.35;;
74074;SDS011;62428;51.412;5.432;2023-03-01T15:30:33;6.75;;;3.70;;
74074;SDS011;62428;51.412;5.432;2023-03-01T15:35:57;7.63;;;3.55;;
74074;SDS011;62428;51.412;5.432;2023-03-01T15:40:53;5.50;;;3.22;;
74074;SDS011;62428;51.412;5.432;2023-03-01T15:46:17;9.63;;;3.63;;
74074;SDS011;62428;51.412;5.432;2023-03-01T15:48:47;8.23;;;3.55;;
74074;SDS011;62428;51.412;5.432;2023-03-01T15:51:17;7.35;;;3.92;;
74074;SDS011;62428;51.412;5.432;2023-03-01T15:53:48;9.52;;;3.65;;
74074;SDS011;62428;51.412;5.432;2023-03-01T15:56:16;8.57;;;4.00;;
74074;SDS011;62428;51.412;5.432;2023-03-01T15:58:41;6.63;;;3.70;;
74074;SDS011;62428;51.412;5.432;2023-03-01T16:01:13;8.87;;;4.17;;
74074;SDS011;62428;51.412;5.432;2023-03-01T16:03:41;7.60;;;4.00;;
74074;SDS011;62428;51.412;5.432;2023-03-01T16:06:08;7.97;;;3.80;;
74074;SDS011;62428;51.412;5.432;2023-03-01T16:08:37;8.15;;;4.03;;
74074;SDS011;62428;51.412;5.432;2023-03-01T16:11:03;7.88;;;3.80;;
74074;SDS011;62428;51.412;5.432;2023-03-01T16:13:30;5.97;;;3.88;;
74074;SDS011;62428;51.412;5.432;2023-03-01T16:15:57;7.60;;;4.40;;
74074;SDS011;62428;51.412;5.432;2023-03-01T16:18:22;7.28;;;3.95;;
74074;SDS011;62428;51.412;5.432;2023-03-01T16:20:48;8.97;;;3.80;;
74074;SDS011;62428;51.412;5.432;2023-03-01T16:23:14;8.43;;;3.72;;
74074;SDS011;62428;51.412;5.432;2023-03-01T16:25:39;8.20;;;4.03;;
74074;SDS011;62428;51.412;5.432;2023-03-01T16:28:05;9.37;;;3.70;;
74074;SDS011;62428;51.412;5.432;2023-03-01T16:30:34;9.63;;;4.00;;
74074;SDS011;62428;51.412;5.432;2023-03-01T16:33:00;7.88;;;3.78;;
74074;SDS011;62428;51.412;5.432;2023-03-01T16:35:26;8.13;;;4.00;;
74074;SDS011;62428;51.412;5.432;2023-03-01T16:37:51;10.03;;;4.37;;
74074;SDS011;62428;51.412;5.432;2023-03-01T16:40:23;8.73;;;4.03;;
74074;SDS011;62428;51.412;5.432;2023-03-01T16:42:51;8.93;;;4.55;;
74074;SDS011;62428;51.412;5.432;2023-03-01T16:45:18;9.15;;;4.03;;
74074;SDS011;62428;51.412;5.432;2023-03-01T16:47:43;10.50;;;4.53;;
74074;SDS011;62428;51.412;5.432;2023-03-01T16:50:09;8.52;;;4.20;;
74074;SDS011;62428;51.412;5.432;2023-03-01T16:52:35;13.52;;;4.55;;
74074;SDS011;62428;51.412;5.432;2023-03-01T16:55:05;7.70;;;4.03;;
74074;SDS011;62428;51.412;5.432;2023-03-01T16:57:33;8.95;;;4.30;;
74074;SDS011;62428;51.412;5.432;2023-03-01T16:59:59;9.57;;;4.40;;
74074;SDS011;62428;51.412;5.432;2023-03-01T17:02:24;9.85;;;4.40;;
74074;SDS011;62428;51.412;5.432;2023-03-01T17:04:51;8.45;;;4.07;;
74074;SDS011;62428;51.412;5.432;2023-03-01T17:07:18;10.38;;;4.05;;
74074;SDS011;62428;51.412;5.432;2023-03-01T17:09:43;9.17;;;3.80;;
74074;SDS011;62428;51.412;5.432;2023-03-01T17:12:09;7.80;;;3.70;;
74074;SDS011;62428;51.412;5.432;2023-03-01T17:14:36;9.70;;;4.18;;
74074;SDS011;62428;51.412;5.432;2023-03-01T17:17:03;10.07;;;4.45;;
74074;SDS011;62428;51.412;5.432;2023-03-01T17:19:28;10.30;;;4.03;;
74074;SDS011;62428;51.412;5.432;2023-03-01T17:21:53;9.20;;;4.20;;
74074;SDS011;62428;51.412;5.432;2023-03-01T17:24:19;8.10;;;3.77;;